Time;durP1;ratioP1;P1;durP2;ratioP2;P2;SDS_P1;SDS_P2;PMS_P1;PMS_P2;Temp;Humidity;BMP_temperature;BMP_pressure;BME280_temperature;BME280_humidity;BME280_pressure;Samples;Min_cycle;Max_cycle;Signal;HPM_P1;HPM_P2
2022/04/18 00:00:19;;;;;;;6.13;2.83;;;;;;;8.24;33.95;100792.56;5416924;32;36513;-68
2022/04/18 00:03:21;;;;;;;6.47;3.03;;;;;;;8.68;33.22;100776.66;5406213;32;43660;-67
2022/04/18 00:06:23;;;;;;;4.17;2.37;;;;;;;8.90;32.80;100781.38;5419568;32;35656;-66
2022/04/18 00:09:25;;;;;;;8.07;2.87;;;;;;;8.82;33.28;100778.06;5410612;32;34774;-66
2022/04/18 00:12:28;;;;;;;6.30;2.50;;;;;;;8.87;33.28;100781.44;5411328;32;34398;-68
2022/04/18 00:15:30;;;;;;;7.62;2.75;;;;;;;8.90;33.16;100778.75;5399011;32;35496;-67
2022/04/18 00:18:32;;;;;;;6.47;2.80;;;;;;;8.63;33.52;100775.06;5405644;32;35509;-66
2022/04/18 00:21:35;;;;;;;5.33;2.30;;;;;;;8.70;33.49;100767.94;5404499;32;34926;-66
2022/04/18 00:24:37;;;;;;;4.77;2.50;;;;;;;8.95;33.36;100761.12;5404940;32;34772;-68
2022/04/18 00:27:39;;;;;;;7.30;2.70;;;;;;;8.47;33.99;100769.34;5410415;32;34121;-66
2022/04/18 00:30:41;;;;;;;3.93;2.23;;;;;;;9.23;32.64;100761.25;5400262;32;35646;-66
2022/04/18 00:33:43;;;;;;;3.27;2.00;;;;;;;9.34;32.59;100753.06;5418264;32;34858;-65
2022/04/18 00:36:45;;;;;;;4.63;2.30;;;;;;;8.86;33.32;100754.38;5403220;32;35417;-68
2022/04/18 00:39:48;;;;;;;4.60;2.40;;;;;;;8.57;34.22;100752.50;5411330;32;34940;-68
2022/04/18 00:42:50;;;;;;;4.77;2.23;;;;;;;8.80;33.97;100753.66;5424402;32;34964;-68
2022/04/18 00:45:52;;;;;;;4.53;2.03;;;;;;;8.64;34.34;100746.22;5396346;32;44661;-69
2022/04/18 00:48:55;;;;;;;3.70;2.13;;;;;;;8.50;34.65;100750.06;5420176;32;35319;-69
2022/04/18 00:51:57;;;;;;;4.60;2.07;;;;;;;8.44;35.09;100751.09;5401303;32;35018;-68
2022/04/18 00:55:00;;;;;;;6.20;2.67;;;;;;;9.17;33.93;100743.94;5422813;32;35189;-68
2022/04/18 00:58:04;;;;;;;5.32;2.25;;;;;;;8.62;34.93;100745.37;5357450;32;35470;-66
2022/04/18 01:01:06;;;;;;;4.78;2.00;;;;;;;8.91;34.61;100735.91;5396032;32;34432;-65
2022/04/18 01:04:08;;;;;;;4.10;2.00;;;;;;;9.01;34.27;100736.50;5427237;32;35377;-68
2022/04/18 01:07:11;;;;;;;4.93;2.17;;;;;;;9.09;34.04;100732.78;5399182;32;34686;-66
2022/04/18 01:10:14;;;;;;;5.20;2.30;;;;;;;9.20;33.79;100732.47;5412114;32;34625;-68
2022/04/18 01:13:16;;;;;;;4.53;2.10;;;;;;;9.03;33.78;100730.34;5397264;32;35589;-68
2022/04/18 01:16:18;;;;;;;4.13;2.33;;;;;;;9.16;33.02;100723.84;5408458;32;35322;-66
2022/04/18 01:19:20;;;;;;;4.60;2.10;;;;;;;8.85;33.47;100722.97;5394573;32;34317;-67
2022/04/18 01:22:22;;;;;;;5.50;2.70;;;;;;;9.60;32.23;100724.34;5407713;32;45274;-67
2022/04/18 01:28:59;;;;;;;5.13;2.13;;;;;;;9.23;32.79;100707.03;5410368;32;36732;-66
2022/04/18 01:32:01;;;;;;;4.57;2.10;;;;;;;8.65;33.97;100707.78;5407319;32;37090;-69
2022/04/18 01:35:04;;;;;;;6.40;2.33;;;;;;;8.79;33.64;100699.53;5414198;32;34359;-68
2022/04/18 01:38:07;;;;;;;6.47;2.10;;;;;;;8.49;34.30;100702.03;5397888;32;35861;-67
2022/04/18 01:41:09;;;;;;;5.05;2.45;;;;;;;8.83;33.90;100695.94;5411152;32;35417;-69
2022/04/18 01:44:11;;;;;;;5.03;2.27;;;;;;;8.68;33.94;100694.56;5393380;32;36501;-68
2022/04/18 01:47:13;;;;;;;5.83;2.40;;;;;;;8.58;34.40;100687.87;5404802;32;34798;-65
2022/04/18 01:50:15;;;;;;;6.50;2.20;;;;;;;9.07;33.46;100686.53;5389450;32;34171;-68
2022/04/18 01:53:17;;;;;;;5.00;2.20;;;;;;;9.32;33.11;100694.56;5413894;32;35057;-68
2022/04/18 01:56:19;;;;;;;5.03;2.40;;;;;;;8.93;33.79;100686.91;5390309;32;35638;-68
2022/04/18 01:59:21;;;;;;;4.83;2.43;;;;;;;9.31;33.21;100677.09;5402616;32;44791;-67
2022/04/18 02:02:23;;;;;;;4.43;2.10;;;;;;;9.75;32.47;100675.78;5418037;32;34654;-67
2022/04/18 02:05:26;;;;;;;3.80;1.97;;;;;;;9.43;32.93;100680.22;5407959;32;35483;-66
2022/04/18 02:08:28;;;;;;;5.80;2.33;;;;;;;9.25;33.29;100678.13;5405932;32;34702;-66
2022/04/18 02:11:30;;;;;;;4.87;2.20;;;;;;;9.28;33.26;100678.06;5396060;32;34772;-66
2022/04/18 02:14:32;;;;;;;4.93;2.30;;;;;;;9.52;32.91;100675.59;5403314;32;34787;-67
2022/04/18 02:17:34;;;;;;;4.33;1.93;;;;;;;9.91;32.40;100663.87;5412531;32;34722;-68
2022/04/18 02:20:36;;;;;;;5.40;2.57;;;;;;;9.36;32.96;100665.56;5406443;32;34336;-67
2022/04/18 02:23:40;;;;;;;4.23;2.00;;;;;;;10.02;32.25;100655.66;5417174;32;34889;-65
2022/04/18 02:26:42;;;;;;;4.87;2.30;;;;;;;8.93;33.89;100658.06;5391769;32;34721;-68
2022/04/18 02:29:44;;;;;;;6.23;2.20;;;;;;;9.63;32.44;100647.28;5402875;32;35030;-66
2022/04/18 02:32:50;;;;;;;4.90;2.10;;;;;;;9.72;32.42;100644.34;5399343;32;35813;-66
2022/04/18 02:35:53;;;;;;;4.87;2.10;;;;;;;10.00;32.19;100639.09;5407901;32;44795;-68
2022/04/18 02:38:55;;;;;;;5.30;2.05;;;;;;;9.76;32.39;100648.59;5414437;32;36612;-68
2022/04/18 02:41:57;;;;;;;4.20;2.17;;;;;;;8.86;34.03;100638.19;5396430;32;35168;-68
2022/04/18 02:45:00;;;;;;;5.93;2.60;;;;;;;9.74;32.89;100634.69;5413910;32;34286;-68
2022/04/18 02:48:02;;;;;;;5.80;2.40;;;;;;;8.94;34.40;100641.44;5414568;32;34425;-67
2022/04/18 02:51:04;;;;;;;5.97;2.67;;;;;;;9.01;34.28;100635.12;5410749;32;34561;-66
2022/04/18 02:54:06;;;;;;;4.93;2.30;;;;;;;9.22;33.71;100631.88;5404785;32;35391;-66
2022/04/18 02:57:08;;;;;;;4.30;2.30;;;;;;;8.77;34.74;100635.84;5380747;32;34686;-66
2022/04/18 03:00:11;;;;;;;4.33;2.30;;;;;;;9.54;33.33;100624.81;5418365;32;35268;-68
2022/04/18 03:03:13;;;;;;;5.75;2.40;;;;;;;8.69;34.79;100625.53;5397890;32;35113;-65
2022/04/18 03:06:16;;;;;;;4.67;2.23;;;;;;;9.03;34.38;100629.84;5419579;32;34646;-69
2022/04/18 03:09:19;;;;;;;3.43;2.20;;;;;;;9.35;33.57;100616.66;5385087;32;34736;-68
2022/04/18 03:12:21;;;;;;;5.72;2.40;;;;;;;8.88;34.21;100616.25;5412936;32;36417;-68
2022/04/18 03:15:23;;;;;;;5.07;2.23;;;;;;;9.15;33.93;100612.00;5386293;32;35143;-68
2022/04/18 03:18:26;;;;;;;5.47;2.40;;;;;;;8.94;34.23;100612.59;5407701;32;34824;-67
2022/04/18 03:21:29;;;;;;;5.07;2.30;;;;;;;9.05;34.13;100615.78;5406370;32;35272;-66
2022/04/18 03:24:31;;;;;;;5.50;2.30;;;;;;;8.33;35.66;100611.66;5409639;32;34577;-65
2022/04/18 03:27:34;;;;;;;6.05;2.50;;;;;;;8.63;35.06;100602.13;5397682;32;34266;-68
2022/04/18 03:30:36;;;;;;;8.27;2.57;;;;;;;9.37;33.79;100603.47;5396327;32;35542;-66
2022/04/18 03:33:38;;;;;;;4.93;2.10;;;;;;;10.16;32.35;100602.66;5409711;32;34788;-66
2022/04/18 03:40:02;;;;;;;7.07;2.57;;;;;;;9.40;33.59;100606.00;5392688;32;34296;-69
2022/04/18 03:43:04;;;;;;;7.07;2.97;;;;;;;9.37;33.80;100608.72;5415469;32;35418;-66
2022/04/18 03:46:07;;;;;;;5.30;2.50;;;;;;;9.49;33.60;100600.47;5407310;32;34979;-68
2022/04/18 03:49:09;;;;;;;4.33;2.10;;;;;;;9.85;32.98;100594.94;5408278;32;35220;-66
2022/04/18 03:52:11;;;;;;;5.47;2.27;;;;;;;9.47;33.73;100594.44;5400165;32;34764;-69
2022/04/18 03:55:13;;;;;;;6.43;2.30;;;;;;;8.41;35.53;100588.75;5397142;32;35613;-68
2022/04/18 03:58:16;;;;;;;4.30;2.20;;;;;;;8.84;34.94;100587.56;5394190;32;35186;-68
2022/04/18 04:01:18;;;;;;;4.87;2.40;;;;;;;8.86;35.09;100586.63;5396855;32;35553;-68
2022/04/18 04:04:21;;;;;;;4.35;2.25;;;;;;;9.25;34.37;100578.47;5427248;32;44699;-66
2022/04/18 04:07:23;;;;;;;5.97;2.27;;;;;;;10.00;33.13;100574.31;5398650;32;34145;-66
2022/04/18 04:10:25;;;;;;;5.27;2.40;;;;;;;9.60;34.04;100572.13;5409180;32;34108;-65
2022/04/18 04:13:28;;;;;;;5.90;2.33;;;;;;;8.91;35.36;100587.34;5395833;32;34017;-69
2022/04/18 04:16:30;;;;;;;5.90;2.40;;;;;;;9.17;35.06;100583.09;5412203;32;35135;-68
2022/04/18 04:19:33;;;;;;;5.05;2.20;;;;;;;9.88;34.25;100579.09;5414936;32;34677;-65
2022/04/18 04:22:35;;;;;;;4.03;2.10;;;;;;;8.42;36.46;100587.84;5398787;32;36044;-67
2022/04/18 04:25:37;;;;;;;5.80;2.60;;;;;;;8.65;36.20;100576.75;5406216;32;35734;-66
2022/04/18 04:28:39;;;;;;;4.97;2.50;;;;;;;9.64;34.74;100581.59;5401611;32;34907;-68
2022/04/18 04:31:44;;;;;;;8.27;2.60;;;;;;;9.42;35.01;100575.34;5408849;32;35487;-66
2022/04/18 04:34:47;;;;;;;5.80;2.40;;;;;;;9.69;34.48;100584.94;5397107;32;36936;-68
2022/04/18 04:37:49;;;;;;;5.73;2.60;;;;;;;9.00;35.96;100582.72;5413071;32;34187;-68
2022/04/18 04:40:53;;;;;;;4.73;2.50;;;;;;;9.66;34.81;100576.31;5416708;32;37113;-67
2022/04/18 04:43:55;;;;;;;5.20;2.47;;;;;;;10.22;33.50;100570.94;5406090;32;34962;-68
2022/04/18 04:46:57;;;;;;;7.63;3.07;;;;;;;9.72;34.42;100579.63;5410000;32;35087;-68
2022/04/18 04:50:00;;;;;;;5.23;2.60;;;;;;;10.22;33.61;100574.41;5414302;32;34519;-66
2022/04/18 04:53:03;;;;;;;8.70;2.53;;;;;;;9.98;33.91;100577.88;5414211;32;34208;-65
2022/04/18 04:56:05;;;;;;;9.30;3.50;;;;;;;9.62;34.60;100578.19;5395775;32;36356;-66
2022/04/18 04:59:08;;;;;;;4.90;2.40;;;;;;;9.44;35.20;100569.13;5413110;32;36086;-69
2022/04/18 05:02:10;;;;;;;6.37;2.50;;;;;;;9.61;34.37;100571.22;5414579;32;35082;-67
2022/04/18 05:05:12;;;;;;;4.90;2.33;;;;;;;9.53;34.59;100570.59;5407637;32;34799;-68
2022/04/18 05:08:14;;;;;;;5.57;2.57;;;;;;;9.61;34.46;100571.22;5405023;32;34394;-68
2022/04/18 05:11:16;;;;;;;5.60;2.60;;;;;;;9.22;35.26;100579.44;5406753;32;36879;-68
2022/04/18 05:14:19;;;;;;;5.47;2.50;;;;;;;9.03;35.82;100572.19;5408604;32;34545;-66
2022/04/18 05:17:21;;;;;;;12.20;3.47;;;;;;;8.92;36.21;100575.97;5380672;32;44914;-68
2022/04/18 05:20:23;;;;;;;7.07;3.43;;;;;;;10.04;34.23;100570.66;5412383;32;35019;-68
2022/04/18 05:23:25;;;;;;;7.30;2.80;;;;;;;9.38;35.47;100573.72;5402984;32;36155;-68
2022/04/18 05:26:28;;;;;;;5.80;2.50;;;;;;;9.95;34.71;100570.97;5396441;32;34664;-65
2022/04/18 05:29:30;;;;;;;8.07;3.60;;;;;;;9.95;34.57;100570.97;5415509;32;35715;-68
2022/04/18 05:32:32;;;;;;;5.77;2.77;;;;;;;9.52;35.31;100573.28;5399101;32;34852;-68
2022/04/18 05:35:34;;;;;;;4.57;2.50;;;;;;;9.87;34.22;100559.03;5412615;32;34328;-66
2022/04/18 05:38:36;;;;;;;6.23;2.97;;;;;;;8.91;36.14;100565.53;5406139;32;34878;-68
2022/04/18 05:41:38;;;;;;;5.60;2.50;;;;;;;9.74;34.86;100566.44;5395426;32;35262;-66
2022/04/18 05:44:40;;;;;;;6.27;2.53;;;;;;;9.18;35.34;100563.84;5404202;32;34642;-66
2022/04/18 05:47:43;;;;;;;5.60;2.60;;;;;;;9.77;34.72;100555.81;5414427;32;34106;-66
2022/04/18 05:50:45;;;;;;;5.83;2.90;;;;;;;9.69;34.45;100553.47;5410676;32;34676;-68
2022/04/18 05:53:47;;;;;;;5.67;2.60;;;;;;;9.12;35.22;100567.50;5406965;32;34877;-67
2022/04/18 05:56:49;;;;;;;4.57;2.37;;;;;;;10.16;33.50;100563.25;5401333;32;34616;-68
2022/04/18 05:59:51;;;;;;;5.80;2.60;;;;;;;10.12;34.13;100567.78;5399587;32;45723;-67
2022/04/18 06:02:55;;;;;;;5.30;2.20;;;;;;;9.71;34.50;100567.38;5416553;32;34981;-65
2022/04/18 06:05:57;;;;;;;4.85;2.50;;;;;;;10.60;33.22;100559.09;5415687;32;34949;-66
2022/04/18 06:08:59;;;;;;;5.30;2.47;;;;;;;11.52;31.73;100551.16;5406659;32;34329;-68
2022/04/18 06:12:01;;;;;;;4.77;2.70;;;;;;;9.63;34.85;100569.41;5408068;32;34556;-67
2022/04/18 06:15:04;;;;;;;6.33;2.40;;;;;;;10.87;32.47;100553.72;5411299;32;34916;-67
2022/04/18 06:18:06;;;;;;;7.40;2.80;;;;;;;9.47;34.78;100563.81;5396019;32;34875;-68
2022/04/18 06:21:08;;;;;;;6.07;2.80;;;;;;;10.32;33.65;100561.00;5398901;32;34595;-68
2022/04/18 06:24:10;;;;;;;5.60;2.60;;;;;;;10.72;33.46;100563.91;5407904;32;34714;-69
2022/04/18 06:27:12;;;;;;;6.87;3.17;;;;;;;10.45;33.51;100563.16;5403073;32;34976;-68
2022/04/18 06:30:15;;;;;;;5.73;2.67;;;;;;;10.11;34.25;100571.31;5400829;32;35566;-68
2022/04/18 06:33:18;;;;;;;6.43;2.90;;;;;;;10.07;34.49;100568.84;5412757;32;36895;-66
2022/04/18 06:36:20;;;;;;;5.43;2.53;;;;;;;10.01;33.29;100562.87;5394681;32;34938;-68
2022/04/18 06:39:22;;;;;;;5.53;2.30;;;;;;;10.34;31.76;100554.78;5421802;32;44664;-67
2022/04/18 06:42:24;;;;;;;6.27;2.97;;;;;;;10.13;32.55;100560.75;5389958;32;34765;-66
2022/04/18 06:45:28;;;;;;;6.80;2.63;;;;;;;9.65;33.94;100566.72;5398992;32;34834;-68
2022/04/18 06:48:31;;;;;;;5.60;2.73;;;;;;;9.87;33.82;100561.66;5417324;32;34272;-68
2022/04/18 06:51:33;;;;;;;6.20;2.83;;;;;;;9.64;34.67;100565.87;5391561;32;35346;-68
2022/04/18 06:54:35;;;;;;;6.63;2.60;;;;;;;10.99;32.22;100555.91;5414456;32;34601;-66
2022/04/18 06:57:38;;;;;;;8.33;3.30;;;;;;;10.62;31.61;100562.53;5373912;32;36469;-69
2022/04/18 07:00:40;;;;;;;4.57;2.12;;;;;;;10.29;32.67;100559.34;5397262;32;34861;-69
2022/04/18 07:03:42;;;;;;;6.47;2.20;;;;;;;10.07;32.00;100561.81;5388064;32;34614;-68
2022/04/18 07:06:44;;;;;;;5.17;2.10;;;;;;;9.96;32.21;100564.81;5401831;32;35443;-69
2022/04/18 07:09:46;;;;;;;7.27;2.63;;;;;;;10.34;31.80;100556.56;5394143;32;35353;-69
2022/04/18 07:12:48;;;;;;;6.83;2.80;;;;;;;10.17;32.23;100559.72;5376899;32;34749;-66
2022/04/18 07:15:52;;;;;;;6.30;2.90;;;;;;;10.51;32.09;100554.19;5402686;32;45555;-66
2022/04/18 07:18:54;;;;;;;;;;;;;;;10.21;32.76;100562.19;5398974;32;34742;-68
2022/04/18 07:21:57;;;;;;;6.17;3.07;;;;;;;11.35;31.30;100549.22;5408273;32;35238;-67
2022/04/18 07:24:59;;;;;;;6.57;2.50;;;;;;;10.77;32.25;100556.72;5384367;32;34528;-67
2022/04/18 07:28:01;;;;;;;6.07;2.80;;;;;;;10.48;32.96;100564.78;5406483;32;35580;-68
2022/04/18 07:31:03;;;;;;;6.30;3.17;;;;;;;10.36;33.22;100558.19;5414380;32;35012;-68
2022/04/18 07:34:05;;;;;;;7.27;2.70;;;;;;;10.51;32.64;100555.03;5404961;32;34988;-65
2022/04/18 07:37:07;;;;;;;4.00;2.30;;;;;;;11.57;30.52;100543.94;5418991;32;34664;-66
2022/04/18 07:40:10;;;;;;;5.70;2.60;;;;;;;10.78;31.91;100547.91;5397057;32;35233;-70
2022/04/18 07:43:12;;;;;;;7.37;2.30;;;;;;;12.21;29.56;100545.69;5397884;32;34628;-66
2022/04/18 07:46:15;;;;;;;4.70;2.50;;;;;;;11.13;30.51;100543.91;5394717;32;34909;-66
2022/04/18 07:49:17;;;;;;;4.78;2.85;;;;;;;12.18;29.38;100545.84;5397903;32;34647;-68
2022/04/18 07:52:19;;;;;;;6.00;2.63;;;;;;;10.72;31.80;100548.13;5414750;32;34773;-65
2022/04/18 07:55:22;;;;;;;6.33;2.90;;;;;;;11.48;30.87;100541.69;5367000;32;44684;-69
2022/04/18 07:58:24;;;;;;;6.97;2.97;;;;;;;11.47;30.59;100541.75;5388781;32;34714;-65
2022/04/18 08:01:26;;;;;;;6.90;2.80;;;;;;;10.97;32.29;100549.84;5401938;32;35026;-68
2022/04/18 08:04:28;;;;;;;6.97;2.83;;;;;;;11.83;31.13;100539.41;5422931;32;34150;-71
2022/04/18 08:07:30;;;;;;;6.23;3.00;;;;;;;10.39;33.53;100541.50;5403653;32;35664;-66
2022/04/18 08:10:36;;;;;;;7.50;2.87;;;;;;;11.29;32.19;100536.31;5400136;32;35677;-68
2022/04/18 08:13:42;;;;;;;7.37;2.90;;;;;;;10.83;32.68;100539.84;5420563;32;34976;-68
2022/04/18 08:16:44;;;;;;;5.93;2.90;;;;;;;11.01;32.35;100539.16;5400480;32;35161;-69
2022/04/18 08:19:46;;;;;;;6.30;2.87;;;;;;;12.53;29.61;100522.31;5410072;32;35749;-67
2022/04/18 08:22:49;;;;;;;5.80;2.87;;;;;;;10.99;32.11;100524.34;5389336;32;34751;-65
2022/04/18 08:25:51;;;;;;;6.97;3.00;;;;;;;10.69;32.95;100528.97;5401727;32;43490;-68
2022/04/18 08:28:53;;;;;;;7.33;2.90;;;;;;;11.20;31.81;100510.34;5408219;32;35518;-66
2022/04/18 08:31:56;;;;;;;6.73;2.77;;;;;;;12.68;29.89;100509.28;5396940;32;34666;-68
2022/04/18 08:34:58;;;;;;;7.33;2.83;;;;;;;14.83;26.41;100505.56;5412945;32;34589;-68
2022/04/18 08:38:00;;;;;;;8.90;3.20;;;;;;;15.22;25.57;100495.50;5400090;32;36252;-69
2022/04/18 08:41:05;;;;;;;6.32;3.00;;;;;;;14.82;26.21;100492.44;5411327;32;35389;-69
2022/04/18 08:44:08;;;;;;;7.87;2.70;;;;;;;14.17;26.78;100505.56;5395970;32;35352;-66
2022/04/18 08:52:43;;;;;;;5.32;2.55;;;;;;;13.92;26.78;100498.06;5399009;32;35212;-67
2022/04/18 08:53:57;;;;;;;;;;;;;;;15.93;24.24;100485.19;5396204;32;45334;-66
2022/04/18 08:56:59;;;;;;;6.80;2.92;;;;;;;17.76;21.96;100481.53;5396497;32;35073;-66
2022/04/18 09:00:01;;;;;;;5.03;2.50;;;;;;;19.07;19.81;100465.28;5394938;32;34741;-68
2022/04/18 09:03:04;;;;;;;6.57;2.80;;;;;;;16.70;21.75;100478.72;5402524;32;34644;-70
2022/04/18 09:06:10;;;;;;;8.18;2.45;;;;;;;12.74;27.05;100480.00;5404134;32;35451;-68
2022/04/18 09:09:12;;;;;;;5.97;3.17;;;;;;;13.65;25.66;100475.66;5400981;32;32922;-68
2022/04/18 09:12:23;;;;;;;3.80;2.33;;;;;;;15.36;23.79;100469.09;5408939;32;34828;-70
2022/04/18 09:15:34;;;;;;;6.57;2.97;;;;;;;17.41;20.94;100459.09;5392506;32;47130;-69
2022/04/18 09:18:37;;;;;;;4.47;2.20;;;;;;;17.41;21.17;100454.63;5416206;32;35423;-69
2022/04/18 09:21:58;;;;;;;5.22;2.90;;;;;;;18.06;19.97;100441.34;5402588;32;35184;-67
2022/04/18 09:25:00;;;;;;;4.85;2.40;;;;;;;17.40;20.73;100449.44;5405289;32;44602;-67
2022/04/18 09:28:10;;;;;;;4.10;2.42;;;;;;;19.28;18.50;100438.88;5412894;32;35006;-67
2022/04/18 09:31:13;;;;;;;4.18;2.10;;;;;;;17.70;19.33;100439.38;5395723;32;34195;-67
2022/04/18 09:34:20;;;;;;;3.72;2.00;;;;;;;16.49;20.05;100434.00;5422684;32;34743;-67
2022/04/18 09:37:23;;;;;;;11.18;5.45;;;;;;;16.23;20.11;100435.62;5398113;32;44656;-67
2022/04/18 09:40:26;;;;;;;5.07;2.30;;;;;;;18.70;17.68;100422.69;5395178;32;35185;-68
2022/04/18 09:43:45;;;;;;;3.90;2.05;;;;;;;17.01;19.36;100435.16;5407656;32;35236;-69
2022/04/18 09:46:47;;;;;;;4.43;2.20;;;;;;;18.16;18.70;100425.59;5400763;32;34742;-67
2022/04/18 09:49:50;;;;;;;6.57;3.58;;;;;;;18.58;17.88;100412.88;5424954;32;34966;-67
2022/04/18 09:52:52;;;;;;;4.72;2.17;;;;;;;18.53;18.30;100415.88;5384828;32;45164;-66
2022/04/18 09:55:56;;;;;;;4.93;2.30;;;;;;;16.60;19.96;100414.72;5386151;32;35365;-69
2022/04/18 09:59:01;;;;;;;4.55;2.45;;;;;;;17.84;18.65;100407.44;5406372;32;35245;-68
2022/04/18 10:02:12;;;;;;;4.32;2.28;;;;;;;18.18;18.40;100407.75;5406168;32;34596;-68
2022/04/18 10:05:14;;;;;;;4.97;1.92;;;;;;;19.85;16.75;100382.13;5405728;32;34744;-69
2022/04/18 10:08:16;;;;;;;6.12;2.58;;;;;;;18.29;17.99;100393.66;5410921;32;35298;-69
2022/04/18 10:11:19;;;;;;;4.78;2.40;;;;;;;18.55;17.88;100403.31;5405807;32;34895;-69
2022/04/18 10:14:21;;;;;;;;;;;;;;;19.03;17.26;100389.22;5409021;32;45064;-69
2022/04/18 10:17:25;;;;;;;5.43;2.42;;;;;;;18.94;16.77;100386.28;5406601;32;35360;-69
2022/04/18 10:20:50;;;;;;;4.18;2.37;;;;;;;18.23;17.57;100373.69;5420052;32;34766;-67
2022/04/18 10:24:10;;;;;;;4.37;2.20;;;;;;;19.75;16.42;100381.97;5406011;32;44354;-68
2022/04/18 10:27:25;;;;;;;4.60;2.25;;;;;;;18.43;17.02;100374.06;5406597;32;34389;-69
2022/04/18 10:30:27;;;;;;;6.93;2.20;;;;;;;18.65;16.87;100368.87;5383601;32;44607;-67
2022/04/18 10:33:30;;;;;;;7.43;2.50;;;;;;;18.61;16.58;100365.63;5398899;32;34928;-69
2022/04/18 10:36:33;;;;;;;4.50;2.30;;;;;;;19.79;15.60;100364.78;5418017;32;35075;-70
2022/04/18 10:39:38;;;;;;;3.72;2.08;;;;;;;18.30;17.04;100366.97;5395642;32;34325;-67
2022/04/18 10:42:43;;;;;;;4.50;2.50;;;;;;;20.14;15.46;100353.97;5393891;32;34410;-67
2022/04/18 10:45:45;;;;;;;5.95;2.80;;;;;;;20.32;15.25;100354.34;5404404;32;35230;-69
2022/04/18 10:48:59;;;;;;;5.20;2.15;;;;;;;17.82;17.71;100348.19;5388084;32;34174;-69
2022/04/18 10:52:08;;;;;;;3.42;2.03;;;;;;;17.54;18.02;100354.53;5388630;32;37343;-71
2022/04/18 10:55:19;;;;;;;3.92;2.22;;;;;;;21.95;14.13;100336.28;5384789;32;35384;-67
2022/04/18 10:58:25;;;;;;;4.35;2.40;;;;;;;22.55;13.64;100331.87;5390951;32;44638;-69
2022/04/18 11:01:35;;;;;;;7.15;2.12;;;;;;;20.17;15.31;100327.06;5407680;32;34570;-66
2022/04/18 11:04:40;;;;;;;4.10;2.03;;;;;;;17.34;17.76;100347.06;5423863;32;34932;-72
2022/04/18 11:07:45;;;;;;;3.70;2.25;;;;;;;18.36;17.19;100329.28;5405948;32;35748;-68
2022/04/18 11:10:48;;;;;;;4.62;2.22;;;;;;;19.08;16.74;100334.63;5408926;32;34921;-67
2022/04/18 11:13:50;;;;;;;5.35;2.47;;;;;;;17.46;18.87;100340.94;5421509;32;35049;-66
2022/04/18 11:17:02;;;;;;;4.57;2.75;;;;;;;17.07;19.07;100325.88;5404235;32;44904;-69
2022/04/18 11:20:24;;;;;;;5.53;2.33;;;;;;;17.03;19.61;100335.00;5400948;32;35337;-70
2022/04/18 11:23:27;;;;;;;4.32;2.65;;;;;;;16.02;20.44;100333.53;5405112;32;44665;-66
2022/04/18 11:26:29;;;;;;;;;;;;;;;16.65;20.59;100326.88;5402776;32;34528;-70
2022/04/18 11:29:31;;;;;;;5.00;2.50;;;;;;;19.36;17.77;100312.06;5402562;32;35879;-68
2022/04/18 11:32:38;;;;;;;5.32;3.12;;;;;;;20.34;16.44;100316.84;5391696;32;34974;-69
2022/04/18 11:35:48;;;;;;;4.45;2.40;;;;;;;20.50;16.60;100307.50;5411032;32;35580;-67
2022/04/18 11:38:50;;;;;;;5.15;2.40;;;;;;;19.01;17.30;100311.25;5392999;32;34923;-68
2022/04/18 11:42:03;;;;;;;6.33;2.73;;;;;;;19.19;17.41;100307.16;5408639;32;45044;-67
2022/04/18 11:45:06;;;;;;;8.50;3.25;;;;;;;17.48;19.27;100328.37;5421677;32;35192;-70
2022/04/18 11:48:12;;;;;;;5.27;2.27;;;;;;;14.80;21.77;100339.03;5389143;32;34674;-70
2022/04/18 11:51:40;;;;;;;4.73;2.10;;;;;;;13.46;24.08;100349.88;5408117;32;34953;-66
2022/04/18 11:55:05;;;;;;;8.00;2.53;;;;;;;13.64;23.93;100342.75;5410097;32;34207;-67
2022/04/18 11:58:09;;;;;;;5.00;2.27;;;;;;;13.52;24.61;100338.09;5391220;32;35368;-65
2022/04/18 12:07:55;;;;;;;5.97;2.03;;;;;;;14.57;23.02;100308.63;5423254;32;45488;-68
2022/04/18 12:10:57;;;;;;;4.20;2.30;;;;;;;16.70;19.94;100306.22;5397142;32;34483;-66
2022/04/18 12:14:00;;;;;;;4.90;2.33;;;;;;;17.16;19.64;100301.34;5395016;32;34139;-69
2022/04/18 12:17:08;;;;;;;3.40;1.90;;;;;;;17.10;19.48;100300.91;5404703;32;34967;-70
2022/04/18 12:20:29;;;;;;;5.03;2.33;;;;;;;19.87;16.91;100284.16;5407247;32;34985;-66
2022/04/18 12:23:32;;;;;;;5.03;2.20;;;;;;;18.34;18.81;100282.44;5406969;32;34642;-68
2022/04/18 12:26:34;;;;;;;4.05;2.20;;;;;;;21.89;15.77;100270.75;5396878;32;35436;-69
2022/04/18 12:29:37;;;;;;;5.10;2.55;;;;;;;24.49;12.96;100259.88;5406323;32;35142;-67
2022/04/18 12:32:41;;;;;;;6.15;3.08;;;;;;;22.06;16.78;100266.59;5400615;32;35014;-66
2022/04/18 12:35:46;;;;;;;4.47;2.60;;;;;;;25.46;13.82;100248.25;5398528;32;34982;-68
2022/04/18 12:38:49;;;;;;;5.45;2.60;;;;;;;22.33;17.49;100257.97;5417372;32;34221;-69
2022/04/18 12:42:03;;;;;;;4.32;2.40;;;;;;;24.88;13.98;100249.66;5395695;32;43362;-67
2022/04/18 12:45:06;;;;;;;4.53;2.70;;;;;;;23.89;15.45;100246.06;5411917;32;35360;-67
2022/04/18 12:48:08;;;;;;;;;;;;;;;21.09;17.87;100248.25;5415004;32;35029;-71
2022/04/18 12:51:10;;;;;;;4.40;2.85;;;;;;;21.57;17.93;100244.16;5406794;32;35765;-67
2022/04/18 12:54:20;;;;;;;5.78;3.17;;;;;;;20.16;19.08;100244.47;5422174;32;34171;-67
2022/04/18 12:57:22;;;;;;;4.90;2.53;;;;;;;19.56;19.53;100240.37;5373334;32;44589;-66
2022/04/18 13:00:24;;;;;;;5.20;2.90;;;;;;;17.52;21.82;100247.50;5412039;32;36996;-67
2022/04/18 13:03:27;;;;;;;6.53;2.97;;;;;;;15.28;24.79;100239.19;5393446;32;34991;-70
2022/04/18 13:06:30;;;;;;;;;;;;;;;15.38;24.74;100244.75;5408964;32;34565;-69
2022/04/18 13:09:32;;;;;;;5.47;2.80;;;;;;;15.62;26.22;100248.56;5395832;32;34478;-67
2022/04/18 13:12:34;;;;;;;5.40;2.80;;;;;;;14.71;27.91;100246.12;5402357;32;34649;-66
2022/04/18 13:15:40;;;;;;;6.13;2.77;;;;;;;14.75;28.04;100247.66;5405808;32;35446;-68
2022/04/18 13:18:42;;;;;;;;;;;;;;;14.84;28.14;100252.41;5393403;32;34968;-68
2022/04/18 13:21:44;;;;;;;8.10;3.00;;;;;;;15.01;27.53;100244.34;5415999;32;35341;-69
2022/04/18 13:24:47;;;;;;;6.83;3.40;;;;;;;14.58;27.89;100240.72;5400246;32;37222;-68
2022/04/18 13:27:49;;;;;;;5.73;3.00;;;;;;;13.51;29.58;100239.56;5407234;32;35708;-67
2022/04/18 13:30:51;;;;;;;5.10;2.80;;;;;;;14.23;28.10;100245.31;5409059;32;35367;-66
2022/04/18 13:33:53;;;;;;;5.77;2.90;;;;;;;12.89;29.88;100240.19;5406564;32;34540;-69
2022/04/18 13:36:55;;;;;;;6.07;3.03;;;;;;;12.61;30.77;100232.81;5405410;32;35393;-69
2022/04/18 13:39:57;;;;;;;6.47;3.20;;;;;;;13.10;30.11;100238.22;5407226;32;34760;-68
2022/04/18 13:43:00;;;;;;;6.80;2.83;;;;;;;13.11;29.60;100232.88;5428691;32;34866;-66
2022/04/18 13:46:03;;;;;;;5.40;3.00;;;;;;;13.37;29.09;100217.47;5407258;32;34787;-67
2022/04/18 13:49:06;;;;;;;6.85;3.35;;;;;;;13.28;30.05;100222.31;5401330;32;34930;-65
2022/04/18 13:52:09;;;;;;;6.55;2.90;;;;;;;13.89;29.24;100214.66;5405392;32;35555;-69
2022/04/18 13:55:13;;;;;;;6.40;3.20;;;;;;;14.59;27.29;100208.88;5407420;32;34195;-67
2022/04/18 13:58:16;;;;;;;4.70;2.70;;;;;;;14.77;27.10;100203.47;5398177;32;35382;-65
2022/04/18 14:01:18;;;;;;;5.57;2.77;;;;;;;15.71;25.18;100196.78;5406192;32;34234;-69
2022/04/18 14:04:21;;;;;;;4.97;2.60;;;;;;;15.75;24.20;100190.34;5413580;32;36348;-69
2022/04/18 14:07:23;;;;;;;4.43;2.70;;;;;;;15.15;24.70;100195.84;5407033;32;42228;-66
2022/04/18 14:10:25;;;;;;;5.67;2.57;;;;;;;13.42;26.23;100202.25;5400079;32;34998;-67
2022/04/18 14:13:27;;;;;;;5.70;2.77;;;;;;;12.91;26.95;100198.75;5412190;32;34600;-69
2022/04/18 14:23:12;;;;;;;4.90;2.60;;;;;;;13.75;26.82;100181.94;5399252;32;34904;-65
2022/04/18 14:26:14;;;;;;;5.53;2.80;;;;;;;14.55;25.96;100183.53;5405136;32;34711;-66
2022/04/18 14:29:16;;;;;;;5.35;2.50;;;;;;;13.68;26.64;100191.12;5392698;32;34004;-68
2022/04/18 14:32:19;;;;;;;3.47;1.90;;;;;;;13.05;27.41;100192.75;5398809;32;34653;-67
2022/04/18 14:35:23;;;;;;;4.50;2.03;;;;;;;13.84;25.03;100177.91;5424202;32;43262;-67
2022/04/18 14:38:25;;;;;;;5.60;2.03;;;;;;;13.10;25.94;100198.66;5411021;32;34844;-66
2022/04/18 14:41:27;;;;;;;6.90;1.93;;;;;;;12.00;28.34;100207.66;5398075;32;35025;-67